sensor_id;sensor_type;location;lat;lon;timestamp;P1;durP1;ratioP1;P2;durP2;ratioP2
35839;SDS011;35514;50.504;30.500;2022-11-21T00:02:20;31.98;;;11.55;;
35839;SDS011;35514;50.504;30.500;2022-11-21T00:04:48;30.13;;;11.93;;
35839;SDS011;35514;50.504;30.500;2022-11-21T00:07:17;35.22;;;12.45;;
35839;SDS011;35514;50.504;30.500;2022-11-21T00:09:45;32.35;;;13.13;;
35839;SDS011;35514;50.504;30.500;2022-11-21T00:12:12;29.70;;;11.93;;
35839;SDS011;35514;50.504;30.500;2022-11-21T00:14:45;35.78;;;11.07;;
35839;SDS011;35514;50.504;30.500;2022-11-21T00:17:12;35.13;;;12.77;;
35839;SDS011;35514;50.504;30.500;2022-11-21T00:19:40;34.20;;;13.05;;
35839;SDS011;35514;50.504;30.500;2022-11-21T00:22:08;31.50;;;10.70;;
35839;SDS011;35514;50.504;30.500;2022-11-21T00:24:37;29.08;;;10.77;;
35839;SDS011;35514;50.504;30.500;2022-11-21T00:27:08;29.92;;;11.68;;
35839;SDS011;35514;50.504;30.500;2022-11-21T00:29:35;35.20;;;12.07;;
35839;SDS011;35514;50.504;30.500;2022-11-21T00:32:06;34.92;;;12.30;;
35839;SDS011;35514;50.504;30.500;2022-11-21T00:34:33;36.90;;;12.75;;
35839;SDS011;35514;50.504;30.500;2022-11-21T00:37:01;32.60;;;11.48;;
35839;SDS011;35514;50.504;30.500;2022-11-21T00:39:30;34.75;;;11.82;;
35839;SDS011;35514;50.504;30.500;2022-11-21T00:42:03;35.65;;;11.93;;
35839;SDS011;35514;50.504;30.500;2022-11-21T00:44:30;33.47;;;11.80;;
35839;SDS011;35514;50.504;30.500;2022-11-21T00:46:58;34.30;;;13.13;;
35839;SDS011;35514;50.504;30.500;2022-11-21T00:49:29;29.67;;;11.27;;
35839;SDS011;35514;50.504;30.500;2022-11-21T00:51:57;40.17;;;13.50;;
35839;SDS011;35514;50.504;30.500;2022-11-21T00:54:24;33.38;;;12.98;;
35839;SDS011;35514;50.504;30.500;2022-11-21T00:56:52;33.80;;;11.55;;
35839;SDS011;35514;50.504;30.500;2022-11-21T00:59:21;37.10;;;12.75;;
35839;SDS011;35514;50.504;30.500;2022-11-21T01:01:51;34.25;;;13.15;;
35839;SDS011;35514;50.504;30.500;2022-11-21T01:04:21;37.20;;;13.25;;
35839;SDS011;35514;50.504;30.500;2022-11-21T01:06:49;36.92;;;12.15;;
35839;SDS011;35514;50.504;30.500;2022-11-21T01:09:17;32.15;;;11.20;;
35839;SDS011;35514;50.504;30.500;2022-11-21T01:11:44;31.45;;;11.88;;
35839;SDS011;35514;50.504;30.500;2022-11-21T01:14:12;37.70;;;13.18;;
35839;SDS011;35514;50.504;30.500;2022-11-21T01:16:41;34.03;;;12.10;;
35839;SDS011;35514;50.504;30.500;2022-11-21T01:19:08;30.35;;;11.38;;
35839;SDS011;35514;50.504;30.500;2022-11-21T01:21:36;33.95;;;11.90;;
35839;SDS011;35514;50.504;30.500;2022-11-21T01:24:03;33.35;;;12.45;;
35839;SDS011;35514;50.504;30.500;2022-11-21T01:26:31;30.25;;;11.63;;
35839;SDS011;35514;50.504;30.500;2022-11-21T01:28:59;37.33;;;12.40;;
35839;SDS011;35514;50.504;30.500;2022-11-21T01:31:27;38.60;;;13.45;;
35839;SDS011;35514;50.504;30.500;2022-11-21T01:33:57;37.55;;;12.75;;
35839;SDS011;35514;50.504;30.500;2022-11-21T01:36:25;35.63;;;12.85;;
35839;SDS011;35514;50.504;30.500;2022-11-21T01:38:55;33.97;;;12.20;;
35839;SDS011;35514;50.504;30.500;2022-11-21T01:41:26;41.10;;;13.23;;
35839;SDS011;35514;50.504;30.500;2022-11-21T01:43:56;30.83;;;11.07;;
35839;SDS011;35514;50.504;30.500;2022-11-21T01:46:24;36.97;;;12.55;;
35839;SDS011;35514;50.504;30.500;2022-11-21T01:48:53;37.97;;;14.13;;
35839;SDS011;35514;50.504;30.500;2022-11-21T01:51:24;39.33;;;13.30;;
35839;SDS011;35514;50.504;30.500;2022-11-21T01:53:56;48.15;;;13.75;;
35839;SDS011;35514;50.504;30.500;2022-11-21T01:56:31;35.85;;;13.48;;
35839;SDS011;35514;50.504;30.500;2022-11-21T01:59:00;35.63;;;11.85;;
35839;SDS011;35514;50.504;30.500;2022-11-21T02:01:28;42.83;;;13.98;;
35839;SDS011;35514;50.504;30.500;2022-11-21T02:03:57;34.72;;;11.50;;
35839;SDS011;35514;50.504;30.500;2022-11-21T02:06:29;39.92;;;11.52;;
35839;SDS011;35514;50.504;30.500;2022-11-21T02:08:58;43.00;;;14.52;;
35839;SDS011;35514;50.504;30.500;2022-11-21T02:11:27;42.97;;;14.10;;
35839;SDS011;35514;50.504;30.500;2022-11-21T02:13:56;37.70;;;11.80;;
35839;SDS011;35514;50.504;30.500;2022-11-21T02:16:25;33.67;;;12.38;;
35839;SDS011;35514;50.504;30.500;2022-11-21T02:18:52;39.20;;;13.77;;
35839;SDS011;35514;50.504;30.500;2022-11-21T02:21:22;35.10;;;12.38;;
35839;SDS011;35514;50.504;30.500;2022-11-21T02:23:59;39.53;;;12.95;;
35839;SDS011;35514;50.504;30.500;2022-11-21T02:26:29;33.78;;;12.52;;
35839;SDS011;35514;50.504;30.500;2022-11-21T02:28:57;37.60;;;12.05;;
35839;SDS011;35514;50.504;30.500;2022-11-21T02:31:24;41.65;;;12.25;;
35839;SDS011;35514;50.504;30.500;2022-11-21T02:33:52;42.47;;;13.45;;
35839;SDS011;35514;50.504;30.500;2022-11-21T02:36:28;39.95;;;12.55;;
35839;SDS011;35514;50.504;30.500;2022-11-21T02:38:58;36.88;;;11.85;;
35839;SDS011;35514;50.504;30.500;2022-11-21T02:41:26;47.92;;;15.32;;
35839;SDS011;35514;50.504;30.500;2022-11-21T02:43:58;38.67;;;13.30;;
35839;SDS011;35514;50.504;30.500;2022-11-21T02:46:26;39.10;;;12.90;;
35839;SDS011;35514;50.504;30.500;2022-11-21T02:48:54;37.72;;;12.60;;
35839;SDS011;35514;50.504;30.500;2022-11-21T02:51:22;38.05;;;12.98;;
35839;SDS011;35514;50.504;30.500;2022-11-21T02:53:50;42.65;;;12.40;;
35839;SDS011;35514;50.504;30.500;2022-11-21T02:56:17;37.58;;;12.85;;
35839;SDS011;35514;50.504;30.500;2022-11-21T02:58:45;38.88;;;12.25;;
35839;SDS011;35514;50.504;30.500;2022-11-21T03:01:14;37.90;;;12.70;;
35839;SDS011;35514;50.504;30.500;2022-11-21T03:03:41;43.63;;;12.90;;
35839;SDS011;35514;50.504;30.500;2022-11-21T03:06:09;38.50;;;13.27;;
35839;SDS011;35514;50.504;30.500;2022-11-21T03:08:36;38.28;;;12.40;;
35839;SDS011;35514;50.504;30.500;2022-11-21T03:11:04;36.60;;;13.23;;
35839;SDS011;35514;50.504;30.500;2022-11-21T03:13:32;38.95;;;13.48;;
35839;SDS011;35514;50.504;30.500;2022-11-21T03:15:59;42.03;;;13.27;;
35839;SDS011;35514;50.504;30.500;2022-11-21T03:18:28;35.55;;;11.75;;
35839;SDS011;35514;50.504;30.500;2022-11-21T03:20:56;38.53;;;12.77;;
35839;SDS011;35514;50.504;30.500;2022-11-21T03:23:23;43.88;;;12.88;;
35839;SDS011;35514;50.504;30.500;2022-11-21T03:25:51;43.22;;;13.15;;
35839;SDS011;35514;50.504;30.500;2022-11-21T03:28:18;38.40;;;11.75;;
35839;SDS011;35514;50.504;30.500;2022-11-21T03:30:46;43.03;;;12.55;;
35839;SDS011;35514;50.504;30.500;2022-11-21T03:33:13;36.92;;;10.98;;
35839;SDS011;35514;50.504;30.500;2022-11-21T03:35:42;33.40;;;11.68;;
35839;SDS011;35514;50.504;30.500;2022-11-21T03:38:10;35.42;;;12.40;;
35839;SDS011;35514;50.504;30.500;2022-11-21T03:40:37;38.65;;;11.98;;
35839;SDS011;35514;50.504;30.500;2022-11-21T03:43:05;39.17;;;11.85;;
35839;SDS011;35514;50.504;30.500;2022-11-21T03:45:33;36.50;;;11.85;;
35839;SDS011;35514;50.504;30.500;2022-11-21T03:48:00;30.38;;;11.23;;
35839;SDS011;35514;50.504;30.500;2022-11-21T03:50:28;38.35;;;12.68;;
35839;SDS011;35514;50.504;30.500;2022-11-21T03:52:57;38.95;;;12.90;;
35839;SDS011;35514;50.504;30.500;2022-11-21T03:55:25;35.35;;;12.68;;
35839;SDS011;35514;50.504;30.500;2022-11-21T03:57:52;43.70;;;12.30;;
35839;SDS011;35514;50.504;30.500;2022-11-21T04:00:20;37.85;;;11.98;;
35839;SDS011;35514;50.504;30.500;2022-11-21T04:02:47;32.78;;;11.63;;
35839;SDS011;35514;50.504;30.500;2022-11-21T04:05:15;37.25;;;12.32;;
35839;SDS011;35514;50.504;30.500;2022-11-21T04:07:44;41.47;;;14.02;;
35839;SDS011;35514;50.504;30.500;2022-11-21T04:10:14;37.25;;;12.52;;
35839;SDS011;35514;50.504;30.500;2022-11-21T04:12:41;40.95;;;12.85;;
35839;SDS011;35514;50.504;30.500;2022-11-21T04:15:09;40.40;;;13.00;;
35839;SDS011;35514;50.504;30.500;2022-11-21T04:17:39;40.55;;;11.52;;
35839;SDS011;35514;50.504;30.500;2022-11-21T04:20:08;33.78;;;12.80;;
35839;SDS011;35514;50.504;30.500;2022-11-21T04:22:36;41.35;;;13.10;;
35839;SDS011;35514;50.504;30.500;2022-11-21T04:25:04;44.08;;;12.88;;
35839;SDS011;35514;50.504;30.500;2022-11-21T04:27:33;38.20;;;12.95;;
35839;SDS011;35514;50.504;30.500;2022-11-21T04:30:01;44.75;;;13.60;;
35839;SDS011;35514;50.504;30.500;2022-11-21T04:32:29;42.13;;;12.38;;
35839;SDS011;35514;50.504;30.500;2022-11-21T04:34:59;40.08;;;13.73;;
35839;SDS011;35514;50.504;30.500;2022-11-21T04:37:27;37.83;;;12.35;;
35839;SDS011;35514;50.504;30.500;2022-11-21T04:39:55;44.70;;;14.20;;
35839;SDS011;35514;50.504;30.500;2022-11-21T04:42:22;46.20;;;13.52;;
35839;SDS011;35514;50.504;30.500;2022-11-21T04:44:51;39.28;;;11.90;;
35839;SDS011;35514;50.504;30.500;2022-11-21T04:47:20;39.22;;;12.43;;
35839;SDS011;35514;50.504;30.500;2022-11-21T04:49:47;36.88;;;12.60;;
35839;SDS011;35514;50.504;30.500;2022-11-21T04:52:17;40.78;;;12.38;;
35839;SDS011;35514;50.504;30.500;2022-11-21T04:54:45;37.85;;;12.18;;
35839;SDS011;35514;50.504;30.500;2022-11-21T04:57:13;45.13;;;13.27;;
35839;SDS011;35514;50.504;30.500;2022-11-21T04:59:41;40.45;;;12.43;;
35839;SDS011;35514;50.504;30.500;2022-11-21T05:02:10;37.80;;;12.35;;
35839;SDS011;35514;50.504;30.500;2022-11-21T05:04:41;48.50;;;13.18;;
35839;SDS011;35514;50.504;30.500;2022-11-21T05:07:09;37.45;;;12.35;;
35839;SDS011;35514;50.504;30.500;2022-11-21T05:09:37;38.25;;;11.82;;
35839;SDS011;35514;50.504;30.500;2022-11-21T05:12:05;41.70;;;12.23;;
35839;SDS011;35514;50.504;30.500;2022-11-21T05:14:50;42.05;;;12.73;;
35839;SDS011;35514;50.504;30.500;2022-11-21T05:17:19;40.55;;;12.82;;
35839;SDS011;35514;50.504;30.500;2022-11-21T05:19:47;38.67;;;13.52;;
35839;SDS011;35514;50.504;30.500;2022-11-21T05:22:15;49.83;;;14.02;;
35839;SDS011;35514;50.504;30.500;2022-11-21T05:24:42;40.58;;;13.05;;
35839;SDS011;35514;50.504;30.500;2022-11-21T05:27:10;46.70;;;12.25;;
35839;SDS011;35514;50.504;30.500;2022-11-21T05:29:38;48.25;;;14.95;;
35839;SDS011;35514;50.504;30.500;2022-11-21T05:32:05;43.55;;;13.73;;
35839;SDS011;35514;50.504;30.500;2022-11-21T05:34:34;42.83;;;12.52;;
35839;SDS011;35514;50.504;30.500;2022-11-21T05:37:02;47.85;;;14.30;;
35839;SDS011;35514;50.504;30.500;2022-11-21T05:39:33;44.88;;;13.40;;
35839;SDS011;35514;50.504;30.500;2022-11-21T05:42:01;48.55;;;14.65;;
35839;SDS011;35514;50.504;30.500;2022-11-21T05:44:31;45.45;;;13.50;;
35839;SDS011;35514;50.504;30.500;2022-11-21T05:46:58;45.28;;;14.00;;
35839;SDS011;35514;50.504;30.500;2022-11-21T05:49:28;38.75;;;12.40;;
35839;SDS011;35514;50.504;30.500;2022-11-21T05:55:21;41.25;;;12.10;;
35839;SDS011;35514;50.504;30.500;2022-11-21T05:57:48;40.92;;;12.57;;
35839;SDS011;35514;50.504;30.500;2022-11-21T06:00:16;45.45;;;13.52;;
35839;SDS011;35514;50.504;30.500;2022-11-21T06:02:46;43.00;;;12.38;;
35839;SDS011;35514;50.504;30.500;2022-11-21T06:05:33;42.25;;;12.30;;
35839;SDS011;35514;50.504;30.500;2022-11-21T06:08:01;38.00;;;11.63;;
35839;SDS011;35514;50.504;30.500;2022-11-21T06:10:30;38.85;;;11.23;;
35839;SDS011;35514;50.504;30.500;2022-11-21T06:12:58;40.30;;;12.07;;
35839;SDS011;35514;50.504;30.500;2022-11-21T06:15:26;32.63;;;11.57;;
35839;SDS011;35514;50.504;30.500;2022-11-21T06:17:55;32.78;;;10.88;;
35839;SDS011;35514;50.504;30.500;2022-11-21T06:20:23;29.70;;;10.57;;
35839;SDS011;35514;50.504;30.500;2022-11-21T06:22:58;37.95;;;11.60;;
35839;SDS011;35514;50.504;30.500;2022-11-21T06:25:31;40.53;;;11.57;;
35839;SDS011;35514;50.504;30.500;2022-11-21T06:28:07;36.40;;;12.10;;
35839;SDS011;35514;50.504;30.500;2022-11-21T06:30:38;32.33;;;10.27;;
35839;SDS011;35514;50.504;30.500;2022-11-21T06:33:06;37.40;;;12.13;;
35839;SDS011;35514;50.504;30.500;2022-11-21T06:35:43;42.13;;;13.27;;
35839;SDS011;35514;50.504;30.500;2022-11-21T06:38:11;33.22;;;11.65;;
35839;SDS011;35514;50.504;30.500;2022-11-21T06:41:02;42.95;;;12.57;;
35839;SDS011;35514;50.504;30.500;2022-11-21T06:43:30;45.97;;;13.52;;
35839;SDS011;35514;50.504;30.500;2022-11-21T06:46:01;53.15;;;14.25;;
35839;SDS011;35514;50.504;30.500;2022-11-21T06:48:31;40.58;;;12.57;;
35839;SDS011;35514;50.504;30.500;2022-11-21T06:51:02;46.08;;;13.52;;
35839;SDS011;35514;50.504;30.500;2022-11-21T06:53:31;39.15;;;12.70;;
35839;SDS011;35514;50.504;30.500;2022-11-21T06:56:30;34.40;;;12.40;;
35839;SDS011;35514;50.504;30.500;2022-11-21T07:01:50;39.88;;;11.98;;
35839;SDS011;35514;50.504;30.500;2022-11-21T07:04:24;36.80;;;12.50;;
35839;SDS011;35514;50.504;30.500;2022-11-21T07:06:58;42.67;;;12.25;;
35839;SDS011;35514;50.504;30.500;2022-11-21T07:09:32;33.50;;;12.38;;
35839;SDS011;35514;50.504;30.500;2022-11-21T07:12:07;36.47;;;11.13;;
35839;SDS011;35514;50.504;30.500;2022-11-21T07:14:58;43.95;;;12.07;;
35839;SDS011;35514;50.504;30.500;2022-11-21T07:17:27;42.83;;;12.10;;
35839;SDS011;35514;50.504;30.500;2022-11-21T07:19:55;36.25;;;12.48;;
35839;SDS011;35514;50.504;30.500;2022-11-21T07:22:26;38.65;;;13.32;;
35839;SDS011;35514;50.504;30.500;2022-11-21T07:24:54;37.22;;;12.45;;
35839;SDS011;35514;50.504;30.500;2022-11-21T07:27:25;33.00;;;10.85;;
35839;SDS011;35514;50.504;30.500;2022-11-21T07:29:55;36.33;;;11.60;;
35839;SDS011;35514;50.504;30.500;2022-11-21T07:32:40;38.22;;;13.02;;
35839;SDS011;35514;50.504;30.500;2022-11-21T07:35:10;36.28;;;11.52;;
35839;SDS011;35514;50.504;30.500;2022-11-21T07:37:39;36.80;;;11.60;;
35839;SDS011;35514;50.504;30.500;2022-11-21T07:40:06;33.33;;;11.32;;
35839;SDS011;35514;50.504;30.500;2022-11-21T07:42:36;36.58;;;12.93;;
35839;SDS011;35514;50.504;30.500;2022-11-21T07:45:04;35.70;;;11.02;;
35839;SDS011;35514;50.504;30.500;2022-11-21T07:47:34;40.38;;;12.05;;
35839;SDS011;35514;50.504;30.500;2022-11-21T07:50:03;32.08;;;10.57;;
35839;SDS011;35514;50.504;30.500;2022-11-21T07:52:32;33.92;;;10.80;;
35839;SDS011;35514;50.504;30.500;2022-11-21T07:54:59;35.55;;;11.63;;
35839;SDS011;35514;50.504;30.500;2022-11-21T07:57:28;38.88;;;12.40;;
35839;SDS011;35514;50.504;30.500;2022-11-21T07:59:57;38.75;;;12.40;;
35839;SDS011;35514;50.504;30.500;2022-11-21T08:02:26;36.55;;;11.65;;
35839;SDS011;35514;50.504;30.500;2022-11-21T08:04:54;35.35;;;11.50;;
35839;SDS011;35514;50.504;30.500;2022-11-21T08:07:23;41.28;;;13.75;;
35839;SDS011;35514;50.504;30.500;2022-11-21T08:09:50;37.97;;;13.85;;
35839;SDS011;35514;50.504;30.500;2022-11-21T08:12:24;37.92;;;12.43;;
35839;SDS011;35514;50.504;30.500;2022-11-21T08:15:00;40.10;;;13.32;;
35839;SDS011;35514;50.504;30.500;2022-11-21T08:17:30;37.10;;;12.40;;
35839;SDS011;35514;50.504;30.500;2022-11-21T08:19:58;33.28;;;11.32;;
35839;SDS011;35514;50.504;30.500;2022-11-21T08:22:28;36.20;;;11.88;;
35839;SDS011;35514;50.504;30.500;2022-11-21T08:24:56;36.28;;;11.50;;
35839;SDS011;35514;50.504;30.500;2022-11-21T08:27:28;39.72;;;11.57;;
35839;SDS011;35514;50.504;30.500;2022-11-21T08:29:55;31.25;;;11.48;;
35839;SDS011;35514;50.504;30.500;2022-11-21T08:32:26;39.85;;;11.77;;
35839;SDS011;35514;50.504;30.500;2022-11-21T08:34:54;36.92;;;11.75;;
35839;SDS011;35514;50.504;30.500;2022-11-21T08:37:22;37.80;;;12.07;;
35839;SDS011;35514;50.504;30.500;2022-11-21T08:39:53;40.97;;;13.23;;
35839;SDS011;35514;50.504;30.500;2022-11-21T08:42:21;38.90;;;11.13;;
35839;SDS011;35514;50.504;30.500;2022-11-21T08:44:49;41.47;;;11.57;;
35839;SDS011;35514;50.504;30.500;2022-11-21T08:47:17;39.33;;;12.82;;
35839;SDS011;35514;50.504;30.500;2022-11-21T08:49:47;40.42;;;12.65;;
35839;SDS011;35514;50.504;30.500;2022-11-21T08:52:15;36.83;;;12.77;;
35839;SDS011;35514;50.504;30.500;2022-11-21T08:54:43;36.45;;;13.02;;
35839;SDS011;35514;50.504;30.500;2022-11-21T08:57:11;45.13;;;12.40;;
35839;SDS011;35514;50.504;30.500;2022-11-21T08:59:39;40.72;;;13.48;;
35839;SDS011;35514;50.504;30.500;2022-11-21T09:02:08;36.63;;;12.43;;
35839;SDS011;35514;50.504;30.500;2022-11-21T09:04:37;38.83;;;13.52;;
35839;SDS011;35514;50.504;30.500;2022-11-21T09:07:06;36.53;;;12.07;;
35839;SDS011;35514;50.504;30.500;2022-11-21T09:09:33;46.95;;;13.32;;
35839;SDS011;35514;50.504;30.500;2022-11-21T09:12:01;33.95;;;12.02;;
35839;SDS011;35514;50.504;30.500;2022-11-21T09:14:29;34.22;;;10.95;;
35839;SDS011;35514;50.504;30.500;2022-11-21T09:17:15;36.33;;;12.30;;
35839;SDS011;35514;50.504;30.500;2022-11-21T09:20:00;35.10;;;11.05;;
35839;SDS011;35514;50.504;30.500;2022-11-21T09:22:29;33.85;;;12.55;;
35839;SDS011;35514;50.504;30.500;2022-11-21T09:24:57;42.97;;;13.75;;
35839;SDS011;35514;50.504;30.500;2022-11-21T09:27:24;49.10;;;13.32;;
35839;SDS011;35514;50.504;30.500;2022-11-21T09:29:55;43.10;;;14.10;;
35839;SDS011;35514;50.504;30.500;2022-11-21T09:32:23;42.05;;;14.02;;
35839;SDS011;35514;50.504;30.500;2022-11-21T09:34:51;41.60;;;13.48;;
35839;SDS011;35514;50.504;30.500;2022-11-21T09:37:18;43.78;;;13.93;;
35839;SDS011;35514;50.504;30.500;2022-11-21T09:39:47;37.35;;;12.57;;
35839;SDS011;35514;50.504;30.500;2022-11-21T09:42:23;43.75;;;13.35;;
35839;SDS011;35514;50.504;30.500;2022-11-21T09:45:03;33.38;;;11.98;;
35839;SDS011;35514;50.504;30.500;2022-11-21T09:47:32;39.45;;;12.40;;
35839;SDS011;35514;50.504;30.500;2022-11-21T09:50:02;34.22;;;12.80;;
35839;SDS011;35514;50.504;30.500;2022-11-21T09:52:33;39.90;;;12.75;;
35839;SDS011;35514;50.504;30.500;2022-11-21T09:55:06;40.45;;;13.43;;
35839;SDS011;35514;50.504;30.500;2022-11-21T09:57:36;37.08;;;11.65;;
35839;SDS011;35514;50.504;30.500;2022-11-21T10:00:20;36.60;;;12.57;;
35839;SDS011;35514;50.504;30.500;2022-11-21T10:02:48;33.83;;;10.90;;
35839;SDS011;35514;50.504;30.500;2022-11-21T10:05:29;35.80;;;11.07;;
35839;SDS011;35514;50.504;30.500;2022-11-21T10:08:00;41.65;;;12.13;;
35839;SDS011;35514;50.504;30.500;2022-11-21T10:10:37;34.25;;;10.88;;
35839;SDS011;35514;50.504;30.500;2022-11-21T10:13:14;35.70;;;11.57;;
35839;SDS011;35514;50.504;30.500;2022-11-21T10:15:55;26.30;;;10.00;;
35839;SDS011;35514;50.504;30.500;2022-11-21T10:18:36;35.83;;;11.18;;
35839;SDS011;35514;50.504;30.500;2022-11-21T10:21:58;31.20;;;11.13;;
35839;SDS011;35514;50.504;30.500;2022-11-21T10:27:13;25.77;;;10.18;;
35839;SDS011;35514;50.504;30.500;2022-11-21T10:30:02;37.10;;;10.60;;
35839;SDS011;35514;50.504;30.500;2022-11-21T10:32:36;24.20;;;9.77;;
35839;SDS011;35514;50.504;30.500;2022-11-21T10:35:11;21.58;;;8.60;;
35839;SDS011;35514;50.504;30.500;2022-11-21T10:37:41;24.17;;;7.55;;
35839;SDS011;35514;50.504;30.500;2022-11-21T10:40:14;25.42;;;9.85;;
35839;SDS011;35514;50.504;30.500;2022-11-21T10:42:46;27.08;;;9.65;;
35839;SDS011;35514;50.504;30.500;2022-11-21T10:45:18;18.80;;;7.97;;
35839;SDS011;35514;50.504;30.500;2022-11-21T10:47:49;21.88;;;8.32;;
35839;SDS011;35514;50.504;30.500;2022-11-21T10:53:03;20.67;;;7.82;;
35839;SDS011;35514;50.504;30.500;2022-11-21T10:55:59;19.45;;;7.20;;
35839;SDS011;35514;50.504;30.500;2022-11-21T10:58:34;21.17;;;7.25;;
35839;SDS011;35514;50.504;30.500;2022-11-21T11:01:03;26.30;;;9.25;;
35839;SDS011;35514;50.504;30.500;2022-11-21T11:03:31;19.20;;;7.90;;
35839;SDS011;35514;50.504;30.500;2022-11-21T11:05:59;24.10;;;8.32;;
35839;SDS011;35514;50.504;30.500;2022-11-21T11:08:30;20.13;;;7.55;;
35839;SDS011;35514;50.504;30.500;2022-11-21T11:11:15;31.23;;;8.68;;
35839;SDS011;35514;50.504;30.500;2022-11-21T11:13:57;22.38;;;9.30;;
35839;SDS011;35514;50.504;30.500;2022-11-21T11:16:25;20.83;;;7.75;;
35839;SDS011;35514;50.504;30.500;2022-11-21T11:18:57;18.98;;;7.72;;
35839;SDS011;35514;50.504;30.500;2022-11-21T11:21:26;21.17;;;8.32;;
35839;SDS011;35514;50.504;30.500;2022-11-21T11:24:05;21.90;;;8.40;;
35839;SDS011;35514;50.504;30.500;2022-11-21T11:26:32;25.55;;;8.68;;
35839;SDS011;35514;50.504;30.500;2022-11-21T11:29:08;21.02;;;7.32;;
35839;SDS011;35514;50.504;30.500;2022-11-21T11:31:40;24.38;;;9.70;;
35839;SDS011;35514;50.504;30.500;2022-11-21T11:34:10;16.98;;;7.47;;
35839;SDS011;35514;50.504;30.500;2022-11-21T11:36:40;23.30;;;8.73;;
35839;SDS011;35514;50.504;30.500;2022-11-21T11:44:53;17.27;;;7.13;;
35839;SDS011;35514;50.504;30.500;2022-11-21T11:47:43;16.58;;;6.25;;
35839;SDS011;35514;50.504;30.500;2022-11-21T11:50:20;15.57;;;6.53;;
35839;SDS011;35514;50.504;30.500;2022-11-21T11:52:50;16.60;;;6.70;;
35839;SDS011;35514;50.504;30.500;2022-11-21T11:55:20;15.93;;;5.22;;
35839;SDS011;35514;50.504;30.500;2022-11-21T11:57:50;20.20;;;6.43;;
35839;SDS011;35514;50.504;30.500;2022-11-21T12:00:31;17.23;;;6.10;;
35839;SDS011;35514;50.504;30.500;2022-11-21T12:03:02;14.82;;;6.15;;
35839;SDS011;35514;50.504;30.500;2022-11-21T12:05:30;14.80;;;6.38;;
35839;SDS011;35514;50.504;30.500;2022-11-21T12:08:02;13.52;;;6.05;;
35839;SDS011;35514;50.504;30.500;2022-11-21T12:10:53;17.50;;;5.38;;
35839;SDS011;35514;50.504;30.500;2022-11-21T12:13:40;16.27;;;5.95;;
35839;SDS011;35514;50.504;30.500;2022-11-21T12:16:11;21.98;;;6.20;;
35839;SDS011;35514;50.504;30.500;2022-11-21T12:18:43;12.45;;;4.97;;
35839;SDS011;35514;50.504;30.500;2022-11-21T12:21:14;18.45;;;5.07;;
35839;SDS011;35514;50.504;30.500;2022-11-21T12:23:44;14.63;;;5.85;;
35839;SDS011;35514;50.504;30.500;2022-11-21T12:29:04;13.18;;;5.53;;
35839;SDS011;35514;50.504;30.500;2022-11-21T12:31:37;16.70;;;5.28;;
35839;SDS011;35514;50.504;30.500;2022-11-21T12:36:37;21.88;;;6.47;;
35839;SDS011;35514;50.504;30.500;2022-11-21T12:41:59;15.55;;;6.28;;
35839;SDS011;35514;50.504;30.500;2022-11-21T12:44:53;13.55;;;6.63;;
35839;SDS011;35514;50.504;30.500;2022-11-21T12:47:37;16.40;;;6.45;;
35839;SDS011;35514;50.504;30.500;2022-11-21T12:50:23;18.45;;;6.57;;
35839;SDS011;35514;50.504;30.500;2022-11-21T12:53:10;16.08;;;5.97;;
35839;SDS011;35514;50.504;30.500;2022-11-21T12:56:00;19.25;;;6.70;;
35839;SDS011;35514;50.504;30.500;2022-11-21T12:58:32;17.50;;;5.88;;
35839;SDS011;35514;50.504;30.500;2022-11-21T13:01:07;15.35;;;5.85;;
35839;SDS011;35514;50.504;30.500;2022-11-21T13:03:52;14.83;;;5.93;;
35839;SDS011;35514;50.504;30.500;2022-11-21T13:06:21;18.42;;;5.63;;
35839;SDS011;35514;50.504;30.500;2022-11-21T13:09:06;11.18;;;4.40;;
35839;SDS011;35514;50.504;30.500;2022-11-21T13:12:01;15.55;;;5.35;;
35839;SDS011;35514;50.504;30.500;2022-11-21T13:14:48;17.05;;;6.15;;
35839;SDS011;35514;50.504;30.500;2022-11-21T13:17:27;17.45;;;5.97;;
35839;SDS011;35514;50.504;30.500;2022-11-21T13:20:03;17.17;;;5.72;;
35839;SDS011;35514;50.504;30.500;2022-11-21T13:22:53;11.10;;;5.07;;
35839;SDS011;35514;50.504;30.500;2022-11-21T13:28:30;14.00;;;5.53;;
35839;SDS011;35514;50.504;30.500;2022-11-21T13:30:59;11.15;;;4.55;;
35839;SDS011;35514;50.504;30.500;2022-11-21T13:33:44;13.13;;;4.80;;
35839;SDS011;35514;50.504;30.500;2022-11-21T13:42:03;9.85;;;4.20;;
35839;SDS011;35514;50.504;30.500;2022-11-21T13:51:01;10.98;;;4.50;;
35839;SDS011;35514;50.504;30.500;2022-11-21T13:53:58;7.32;;;3.28;;
35839;SDS011;35514;50.504;30.500;2022-11-21T13:56:35;8.10;;;3.90;;
35839;SDS011;35514;50.504;30.500;2022-11-21T13:59:09;10.02;;;4.07;;
35839;SDS011;35514;50.504;30.500;2022-11-21T14:01:50;9.15;;;3.75;;
35839;SDS011;35514;50.504;30.500;2022-11-21T14:10:18;8.63;;;3.65;;
35839;SDS011;35514;50.504;30.500;2022-11-21T14:12:50;8.00;;;3.13;;
35839;SDS011;35514;50.504;30.500;2022-11-21T14:15:26;9.35;;;4.45;;
35839;SDS011;35514;50.504;30.500;2022-11-21T14:18:01;7.93;;;3.70;;
35839;SDS011;35514;50.504;30.500;2022-11-21T14:23:13;8.23;;;3.55;;
35839;SDS011;35514;50.504;30.500;2022-11-21T14:25:48;9.07;;;3.67;;
35839;SDS011;35514;50.504;30.500;2022-11-21T14:28:36;9.10;;;3.88;;
35839;SDS011;35514;50.504;30.500;2022-11-21T14:31:17;9.88;;;3.40;;
35839;SDS011;35514;50.504;30.500;2022-11-21T14:33:54;8.82;;;4.13;;
35839;SDS011;35514;50.504;30.500;2022-11-21T14:36:39;8.00;;;4.25;;
35839;SDS011;35514;50.504;30.500;2022-11-21T14:39:25;8.55;;;3.42;;
35839;SDS011;35514;50.504;30.500;2022-11-21T14:42:10;7.70;;;4.30;;
35839;SDS011;35514;50.504;30.500;2022-11-21T14:44:39;6.75;;;3.58;;
35839;SDS011;35514;50.504;30.500;2022-11-21T14:47:11;7.88;;;3.85;;
35839;SDS011;35514;50.504;30.500;2022-11-21T14:49:48;9.25;;;4.10;;
35839;SDS011;35514;50.504;30.500;2022-11-21T14:52:41;7.07;;;3.80;;
35839;SDS011;35514;50.504;30.500;2022-11-21T14:55:38;6.47;;;3.70;;
35839;SDS011;35514;50.504;30.500;2022-11-21T15:01:18;6.28;;;3.30;;
35839;SDS011;35514;50.504;30.500;2022-11-21T15:07:17;5.38;;;3.22;;
35839;SDS011;35514;50.504;30.500;2022-11-21T15:09:46;6.20;;;3.17;;
35839;SDS011;35514;50.504;30.500;2022-11-21T15:13:00;9.27;;;3.70;;
35839;SDS011;35514;50.504;30.500;2022-11-21T15:16:08;6.57;;;3.17;;
35839;SDS011;35514;50.504;30.500;2022-11-21T15:18:40;5.97;;;3.13;;
35839;SDS011;35514;50.504;30.500;2022-11-21T15:21:23;6.60;;;3.00;;
35839;SDS011;35514;50.504;30.500;2022-11-21T15:32:27;6.97;;;2.95;;
35839;SDS011;35514;50.504;30.500;2022-11-21T15:35:01;5.05;;;2.88;;
35839;SDS011;35514;50.504;30.500;2022-11-21T15:37:57;6.65;;;2.92;;
35839;SDS011;35514;50.504;30.500;2022-11-21T15:51:39;5.55;;;3.38;;
35839;SDS011;35514;50.504;30.500;2022-11-21T15:54:32;5.85;;;3.38;;
35839;SDS011;35514;50.504;30.500;2022-11-21T15:57:36;7.07;;;3.47;;
35839;SDS011;35514;50.504;30.500;2022-11-21T16:00:07;5.63;;;2.70;;